KDED/DED METAR and TAF weather

Enter ICAO airport designator
Station Type Date Time Source
KDED METAR 2020/01/22 21:15 UTC NOAA

KDED 222115Z AUTO 34014G19KT 10SM OVC009 11/09 A3011 RMK AO2


Station Type Date Time Source
KDED Decoded METAR 2020/01/22 21:15 UTC NOAA

Station name not available
Jan 22, 2020 - 04:15 PM EST / 2020.01.22 2115 UTC
Wind: from the NNW (340 degrees) at 16 MPH (14 KT) gusting to 22 MPH (19 KT):0
Visibility: 10 mile(s):0
Sky conditions: overcast
Temperature: 51 F (11 C)
Dew Point: 48 F (9 C)
Relative Humidity: 87%
Pressure (altimeter): 30.11 in. Hg (1019 hPa)
ob: KDED 222115Z AUTO 34014G19KT 10SM OVC009 11/09 A3011 RMK AO2
cycle: 21

Station Type Date Time Source
KDED TAF UTC NOAA

Error!

Example: see airport list